createdAt,value
2018-08-04T00:04:51.670Z,29.50
2018-08-04T00:05:56.242Z,29.50
2018-08-04T00:06:59.655Z,29.50
2018-08-04T00:08:03.043Z,29.40
2018-08-04T00:09:09.587Z,29.40
2018-08-04T00:10:18.629Z,29.40
2018-08-04T00:11:23.038Z,29.30
2018-08-04T00:12:26.475Z,29.30
2018-08-04T00:13:29.847Z,29.30
2018-08-04T00:14:33.223Z,29.30
2018-08-04T00:15:37.530Z,29.30
2018-08-04T00:16:40.941Z,29.30
2018-08-04T00:17:44.675Z,29.30
2018-08-04T00:18:48.043Z,29.30
2018-08-04T00:19:51.423Z,29.30
2018-08-04T00:20:55.968Z,29.30
2018-08-04T00:21:59.386Z,29.20
2018-08-04T00:23:02.751Z,29.30
2018-08-04T00:24:06.120Z,29.30
2018-08-04T00:25:11.231Z,29.30
2018-08-04T00:26:15.666Z,29.30
2018-08-04T00:27:19.071Z,29.30
2018-08-04T00:28:22.447Z,29.30
2018-08-04T00:29:25.815Z,29.40
2018-08-04T00:30:30.944Z,29.40
2018-08-04T00:32:37.725Z,29.40
2018-08-04T00:33:41.104Z,29.40
2018-08-04T00:34:44.471Z,29.40
2018-08-04T00:35:48.822Z,29.40
2018-08-04T00:41:05.726Z,29.40
2018-08-04T00:42:09.103Z,29.40
2018-08-04T00:43:12.575Z,29.40
2018-08-04T00:44:16.031Z,29.40
2018-08-04T00:45:20.784Z,29.40
2018-08-04T00:46:25.844Z,29.40
2018-08-04T00:47:29.317Z,29.40
2018-08-04T00:48:32.691Z,29.30
2018-08-04T00:49:36.059Z,29.40
2018-08-04T00:50:40.620Z,29.30
2018-08-04T00:51:44.027Z,29.30
2018-08-04T00:52:47.391Z,29.20
2018-08-04T00:53:50.779Z,29.20
2018-08-04T00:54:54.159Z,29.20
2018-08-04T00:55:59.021Z,29.20
2018-08-04T00:57:02.435Z,29.10
2018-08-04T00:58:05.831Z,29.10
2018-08-04T00:59:09.217Z,29.10
2018-08-04T01:00:13.612Z,29.10
2018-08-04T01:01:18.004Z,29.10
2018-08-04T01:02:21.399Z,29.10
2018-08-04T01:03:24.968Z,29.10
2018-08-04T01:04:28.354Z,29.10
2018-08-04T01:05:33.283Z,29.10
2018-08-04T01:06:36.699Z,29.10
2018-08-04T01:07:40.152Z,29.10
2018-08-04T01:08:43.529Z,29.10
2018-08-04T01:09:47.087Z,29.10
2018-08-04T01:10:51.391Z,29.10
2018-08-04T01:11:54.785Z,29.10
2018-08-04T01:12:58.159Z,29.00
2018-08-04T01:14:01.530Z,29.00
2018-08-04T01:15:06.485Z,29.00
2018-08-04T01:16:11.691Z,29.00
2018-08-04T01:17:15.111Z,29.00
2018-08-04T01:18:18.499Z,29.00
2018-08-04T01:19:21.871Z,28.90
2018-08-04T01:20:26.488Z,28.90
2018-08-04T01:21:30.511Z,28.90
2018-08-04T01:22:35.360Z,28.90
2018-08-04T01:23:38.735Z,28.80
2018-08-04T01:24:42.165Z,28.80
2018-08-04T01:25:46.633Z,28.70
2018-08-04T01:26:50.017Z,28.70
2018-08-04T01:27:53.387Z,28.70
2018-08-04T01:28:56.755Z,28.70
2018-08-04T01:31:04.227Z,28.70
2018-08-04T01:32:07.627Z,28.60
2018-08-04T01:33:11.003Z,28.60
2018-08-04T01:34:14.376Z,28.60
2018-08-04T01:35:18.930Z,28.70
2018-08-04T01:36:23.639Z,28.70
2018-08-04T01:37:27.163Z,28.70
2018-08-04T01:38:30.539Z,28.60
2018-08-04T01:39:33.907Z,28.70
2018-08-04T01:40:38.276Z,28.70
2018-08-04T01:41:41.695Z,28.60
2018-08-04T01:42:45.076Z,28.60
2018-08-04T01:43:48.471Z,28.60
2018-08-04T01:44:51.847Z,28.50
2018-08-04T01:45:57.329Z,28.50
2018-08-04T01:47:00.795Z,28.50
2018-08-04T01:48:04.167Z,28.50
2018-08-04T01:49:07.539Z,28.50
2018-08-04T01:51:16.052Z,28.40
2018-08-04T01:52:19.491Z,28.40
2018-08-04T01:53:22.859Z,28.40
2018-08-04T01:54:26.303Z,28.40
2018-08-04T01:56:33.404Z,28.40
2018-08-04T01:57:36.811Z,28.30
2018-08-04T01:58:40.175Z,28.30
2018-08-04T01:59:43.539Z,28.30
2018-08-04T02:01:50.655Z,28.30
2018-08-04T02:02:54.079Z,28.30
2018-08-04T02:03:57.443Z,28.20
2018-08-04T02:05:00.819Z,28.30
2018-08-04T02:06:05.345Z,28.30
2018-08-04T02:07:08.792Z,28.30
2018-08-04T02:08:12.167Z,28.30
2018-08-04T02:10:20.371Z,28.30
2018-08-04T02:11:24.453Z,28.30
2018-08-04T02:13:31.111Z,28.40
2018-08-04T02:14:34.483Z,28.40
2018-08-04T02:15:38.918Z,28.40
2018-08-04T02:17:45.388Z,28.40
2018-08-04T02:18:48.774Z,28.40
2018-08-04T02:19:52.140Z,28.40
2018-08-04T02:20:57.574Z,28.30
2018-08-04T02:22:01.048Z,28.30
2018-08-04T02:23:04.418Z,28.30
2018-08-04T02:24:07.803Z,28.30
2018-08-04T02:25:12.250Z,28.30
2018-08-04T02:27:19.479Z,28.30
2018-08-04T02:28:22.871Z,28.30
2018-08-04T02:29:26.235Z,28.30
2018-08-04T02:30:30.997Z,28.30
2018-08-04T02:31:34.399Z,28.30
2018-08-04T02:32:37.772Z,28.30
2018-08-04T02:33:41.192Z,28.30
2018-08-04T02:34:44.555Z,28.30
2018-08-04T02:35:49.072Z,28.30
2018-08-04T02:36:52.954Z,28.20
2018-08-04T02:37:56.332Z,28.20
2018-08-04T02:38:59.725Z,28.20
2018-08-04T02:40:03.625Z,28.20
2018-08-04T02:41:07.997Z,28.20
2018-08-04T02:42:11.395Z,28.10
2018-08-04T02:43:14.787Z,28.10
2018-08-04T02:44:18.167Z,28.10
2018-08-04T02:45:22.548Z,28.10
2018-08-04T02:46:26.941Z,28.10
2018-08-04T02:47:30.352Z,28.10
2018-08-04T02:48:33.736Z,28.10
2018-08-04T02:50:42.152Z,28.00
2018-08-04T02:51:45.560Z,28.00
2018-08-04T02:52:48.963Z,28.00
2018-08-04T02:53:52.364Z,28.00
2018-08-04T02:54:55.743Z,28.00
2018-08-04T02:56:00.136Z,28.00
2018-08-04T02:57:03.534Z,28.00
2018-08-04T02:58:06.903Z,28.00
2018-08-04T02:59:10.316Z,28.00
2018-08-04T03:00:14.831Z,28.00
2018-08-04T03:01:19.940Z,28.00
2018-08-04T03:02:23.396Z,28.00
2018-08-04T03:03:26.773Z,28.00
2018-08-04T03:04:30.159Z,28.00
2018-08-04T03:05:34.710Z,28.00
2018-08-04T03:06:38.124Z,28.00
2018-08-04T03:07:41.495Z,28.00
2018-08-04T03:08:44.875Z,28.00
2018-08-04T03:09:48.268Z,28.00
2018-08-04T03:10:52.888Z,27.90
2018-08-04T03:11:56.288Z,27.90
2018-08-04T03:12:59.655Z,27.90
2018-08-04T03:14:03.044Z,27.90
2018-08-04T03:15:08.889Z,27.90
2018-08-04T03:17:16.567Z,27.90
2018-08-04T03:18:19.967Z,27.90
2018-08-04T03:19:23.323Z,28.00
2018-08-04T03:20:27.808Z,27.90
2018-08-04T03:21:32.043Z,28.00
2018-08-04T03:22:35.705Z,28.00
2018-08-04T03:23:39.080Z,28.00
2018-08-04T03:24:42.623Z,28.00
2018-08-04T03:25:47.949Z,28.00
2018-08-04T03:26:51.344Z,28.00
2018-08-04T03:27:54.711Z,28.00
2018-08-04T03:28:58.075Z,28.00
2018-08-04T03:30:01.452Z,28.00
2018-08-04T03:31:06.747Z,28.00
2018-08-04T03:32:10.155Z,28.00
2018-08-04T03:33:13.523Z,28.00
2018-08-04T03:34:16.903Z,28.00
2018-08-04T03:35:21.343Z,28.00
2018-08-04T03:36:25.578Z,27.90
2018-08-04T03:37:28.991Z,27.90
2018-08-04T03:38:32.355Z,27.90
2018-08-04T03:39:35.735Z,27.90
2018-08-04T03:40:40.814Z,27.90
2018-08-04T03:41:44.243Z,27.90
2018-08-04T03:42:47.615Z,27.90
2018-08-04T03:43:50.987Z,27.90
2018-08-04T03:44:54.355Z,27.90
2018-08-04T03:45:58.806Z,27.90
2018-08-04T03:47:02.229Z,27.90
2018-08-04T03:48:05.592Z,27.90
2018-08-04T03:49:08.991Z,27.90
2018-08-04T03:50:13.503Z,27.90
2018-08-04T03:51:17.953Z,27.90
2018-08-04T03:52:21.364Z,27.90
2018-08-04T03:53:24.732Z,27.90
2018-08-04T03:55:32.164Z,27.80
2018-08-04T03:56:35.551Z,27.80
2018-08-04T03:57:38.946Z,27.80
2018-08-04T03:58:42.315Z,27.80
2018-08-04T03:59:45.736Z,27.80
2018-08-04T04:00:50.113Z,27.80
2018-08-04T04:01:53.495Z,27.80
2018-08-04T04:02:56.875Z,27.80
2018-08-04T04:04:00.273Z,27.90
2018-08-04T04:05:04.726Z,27.90
2018-08-04T04:06:09.128Z,27.90
2018-08-04T04:07:12.535Z,27.90
2018-08-04T04:08:15.961Z,27.90
2018-08-04T04:09:19.323Z,27.90
2018-08-04T04:10:23.790Z,27.90
2018-08-04T04:11:27.956Z,27.90
2018-08-04T04:12:31.347Z,27.90
2018-08-04T04:13:34.743Z,27.90
2018-08-04T04:14:38.112Z,27.90
2018-08-04T04:15:42.510Z,27.90
2018-08-04T04:16:45.911Z,27.90
2018-08-04T04:17:49.514Z,27.90
2018-08-04T04:18:52.906Z,27.90
2018-08-04T04:19:56.276Z,27.80
2018-08-04T04:21:00.696Z,27.70
2018-08-04T04:22:04.115Z,27.70
2018-08-04T04:23:07.487Z,27.70
2018-08-04T04:24:10.879Z,27.70
2018-08-04T04:25:15.383Z,27.70
2018-08-04T04:26:19.713Z,27.70
2018-08-04T04:29:29.262Z,27.70
2018-08-04T04:31:36.927Z,27.70
2018-08-04T04:32:40.291Z,27.70
2018-08-04T04:33:43.658Z,27.70
2018-08-04T04:34:47.068Z,27.70
2018-08-04T04:35:51.557Z,27.70
2018-08-04T04:36:54.981Z,27.70
2018-08-04T04:37:58.342Z,27.60
2018-08-04T04:39:01.718Z,27.70
2018-08-04T04:40:06.881Z,27.60
2018-08-04T04:41:11.332Z,27.70
2018-08-04T04:42:14.767Z,27.70
2018-08-04T04:43:18.138Z,27.70
2018-08-04T04:44:21.511Z,27.70
2018-08-04T04:45:26.055Z,27.70
2018-08-04T04:46:35.090Z,27.70
2018-08-04T04:47:38.651Z,27.70
2018-08-04T04:48:42.032Z,27.70
2018-08-04T04:49:45.403Z,27.70
2018-08-04T04:50:49.641Z,27.70
2018-08-04T04:51:53.036Z,27.70
2018-08-04T04:52:56.423Z,27.70
2018-08-04T04:53:59.795Z,27.70
2018-08-04T04:55:03.969Z,27.60
2018-08-04T04:56:08.834Z,27.60
2018-08-04T04:57:12.227Z,27.70
2018-08-04T04:58:15.603Z,27.60
2018-08-04T04:59:18.971Z,27.60
2018-08-04T05:00:24.066Z,27.70
2018-08-04T05:01:28.803Z,27.70
2018-08-04T05:02:32.174Z,27.70
2018-08-04T05:03:35.571Z,27.70
2018-08-04T05:04:38.948Z,27.70
2018-08-04T05:05:43.191Z,27.70
2018-08-04T05:06:46.600Z,27.70
2018-08-04T05:08:53.323Z,27.70
2018-08-04T05:09:56.727Z,27.70
2018-08-04T05:11:01.108Z,27.70
2018-08-04T05:12:04.531Z,27.70
2018-08-04T05:13:08.208Z,27.70
2018-08-04T05:14:11.579Z,27.70
2018-08-04T05:15:15.919Z,27.70
2018-08-04T05:16:20.337Z,27.70
2018-08-04T05:17:23.751Z,27.70
2018-08-04T05:19:30.188Z,27.70
2018-08-04T05:20:34.690Z,27.60
2018-08-04T05:21:38.094Z,27.60
2018-08-04T05:22:41.471Z,27.60
2018-08-04T05:23:44.863Z,27.60
2018-08-04T05:24:48.231Z,27.50
2018-08-04T05:25:52.673Z,27.50
2018-08-04T05:26:56.083Z,27.50
2018-08-04T05:27:59.482Z,27.50
2018-08-04T05:29:02.860Z,27.50
2018-08-04T05:30:07.702Z,27.50
2018-08-04T05:31:12.138Z,27.50
2018-08-04T05:32:15.519Z,27.50
2018-08-04T05:33:18.939Z,27.50
2018-08-04T05:34:22.311Z,27.50
2018-08-04T05:35:26.817Z,27.50
2018-08-04T05:36:30.345Z,27.60
2018-08-04T05:37:33.711Z,27.60
2018-08-04T05:38:37.099Z,27.50
2018-08-04T05:39:40.471Z,27.50
2018-08-04T05:40:45.057Z,27.60
2018-08-04T05:41:48.462Z,27.60
2018-08-04T05:42:51.823Z,27.60
2018-08-04T05:43:55.240Z,27.60
2018-08-04T05:44:58.658Z,27.50
2018-08-04T05:46:03.078Z,27.50
2018-08-04T05:47:06.475Z,27.50
2018-08-04T05:48:09.871Z,27.50
2018-08-04T05:49:13.288Z,27.60
2018-08-04T05:50:18.117Z,27.60
2018-08-04T05:51:22.610Z,27.60
2018-08-04T05:52:25.983Z,27.60
2018-08-04T05:53:29.357Z,27.60
2018-08-04T05:54:32.755Z,27.60
2018-08-04T05:55:37.236Z,27.60
2018-08-04T05:56:40.635Z,27.60
2018-08-04T05:57:44.007Z,27.70
2018-08-04T05:58:47.391Z,27.60
2018-08-04T05:59:50.787Z,27.70
2018-08-04T06:00:55.392Z,27.70
2018-08-04T06:01:58.791Z,27.70
2018-08-04T06:03:02.169Z,27.70
2018-08-04T06:04:05.732Z,27.70
2018-08-04T06:06:14.370Z,27.70
2018-08-04T06:07:17.783Z,27.70
2018-08-04T06:08:21.151Z,27.60
2018-08-04T06:09:24.521Z,27.60
2018-08-04T06:10:29.052Z,27.70
2018-08-04T06:11:32.466Z,27.70
2018-08-04T06:12:36.035Z,27.70
2018-08-04T06:13:39.423Z,27.70
2018-08-04T06:14:42.791Z,27.70
2018-08-04T06:15:47.369Z,27.70
2018-08-04T06:16:50.768Z,27.80
2018-08-04T06:17:54.147Z,27.80
2018-08-04T06:18:57.519Z,27.80
2018-08-04T06:20:00.900Z,27.70
2018-08-04T06:21:05.354Z,27.80
2018-08-04T06:22:08.813Z,27.80
2018-08-04T06:23:12.139Z,27.70
2018-08-04T06:24:15.525Z,27.70
2018-08-04T06:25:19.825Z,27.70
2018-08-04T06:26:23.970Z,27.80
2018-08-04T06:27:27.353Z,27.80
2018-08-04T06:28:30.731Z,27.80
2018-08-04T06:29:34.104Z,27.80
2018-08-04T06:30:38.569Z,27.80
2018-08-04T06:31:41.987Z,27.80
2018-08-04T06:32:45.351Z,27.80
2018-08-04T06:33:48.719Z,27.80
2018-08-04T06:34:52.099Z,27.80
2018-08-04T06:35:56.852Z,27.80
2018-08-04T06:37:00.267Z,27.80
2018-08-04T06:38:03.651Z,27.90
2018-08-04T06:39:07.638Z,27.90
2018-08-04T06:40:11.982Z,27.90
2018-08-04T06:41:17.104Z,27.90
2018-08-04T06:42:20.499Z,27.90
2018-08-04T06:43:23.864Z,27.90
2018-08-04T06:44:27.233Z,28.00
2018-08-04T06:45:31.589Z,28.00
2018-08-04T06:46:35.039Z,28.00
2018-08-04T06:47:38.424Z,28.00
2018-08-04T06:48:41.803Z,28.00
2018-08-04T06:49:45.175Z,28.00
2018-08-04T06:50:49.556Z,28.00
2018-08-04T06:51:52.975Z,28.00
2018-08-04T06:52:56.420Z,28.00
2018-08-04T06:53:59.755Z,28.00
2018-08-04T06:55:03.323Z,28.00
2018-08-04T06:56:07.860Z,28.00
2018-08-04T06:57:11.256Z,28.00
2018-08-04T06:58:14.679Z,28.10
2018-08-04T06:59:18.016Z,28.10
2018-08-04T07:00:22.432Z,28.10
2018-08-04T07:01:26.505Z,28.10
2018-08-04T07:02:29.903Z,28.10
2018-08-04T07:03:33.291Z,28.10
2018-08-04T07:04:36.662Z,28.10
2018-08-04T07:05:41.336Z,28.10
2018-08-04T07:06:44.721Z,28.10
2018-08-04T07:07:48.580Z,28.20
2018-08-04T07:08:51.967Z,28.20
2018-08-04T07:09:55.424Z,28.20
2018-08-04T07:10:59.837Z,28.20
2018-08-04T07:12:03.239Z,28.20
2018-08-04T07:13:06.609Z,28.20
2018-08-04T07:14:10.003Z,28.10
2018-08-04T07:15:14.826Z,28.20
2018-08-04T07:16:19.175Z,28.20
2018-08-04T07:18:25.688Z,28.20
2018-08-04T07:19:29.127Z,28.20
2018-08-04T07:20:33.421Z,28.10
2018-08-04T07:21:36.829Z,28.10
2018-08-04T07:22:40.206Z,28.10
2018-08-04T07:23:43.599Z,28.10
2018-08-04T07:24:46.989Z,28.10
2018-08-04T07:25:52.381Z,28.10
2018-08-04T07:26:55.807Z,28.10
2018-08-04T07:27:59.175Z,28.10
2018-08-04T07:29:03.019Z,28.10
2018-08-04T07:30:13.434Z,28.10
2018-08-04T07:31:17.816Z,28.10
2018-08-04T07:32:21.213Z,28.10
2018-08-04T07:33:24.583Z,28.10
2018-08-04T07:34:27.951Z,28.00
2018-08-04T07:35:32.430Z,28.00
2018-08-04T07:36:35.837Z,28.00
2018-08-04T07:37:39.563Z,28.00
2018-08-04T07:38:42.943Z,28.10
2018-08-04T07:39:46.307Z,28.00
2018-08-04T07:40:51.269Z,28.00
2018-08-04T07:41:54.700Z,28.00
2018-08-04T07:44:01.143Z,28.00
2018-08-04T07:46:09.563Z,28.00
2018-08-04T07:47:12.967Z,28.00
2018-08-04T07:48:16.334Z,28.00
2018-08-04T07:50:23.988Z,28.00
2018-08-04T07:51:29.279Z,28.00
2018-08-04T07:52:32.923Z,28.00
2018-08-04T07:53:36.311Z,28.00
2018-08-04T07:54:39.683Z,28.00
2018-08-04T07:55:44.872Z,28.00
2018-08-04T07:56:48.307Z,27.90
2018-08-04T07:57:51.687Z,27.90
2018-08-04T07:58:55.051Z,27.90
2018-08-04T07:59:58.457Z,27.90
2018-08-04T08:01:02.882Z,27.90
2018-08-04T08:02:06.692Z,28.00
2018-08-04T08:03:10.059Z,27.90
2018-08-04T08:04:13.435Z,28.00
2018-08-04T08:05:17.846Z,28.00
2018-08-04T08:07:26.254Z,28.00
2018-08-04T08:08:29.626Z,28.00
2018-08-04T08:09:32.995Z,28.00
2018-08-04T08:10:37.462Z,28.10
2018-08-04T08:12:44.032Z,28.10
2018-08-04T08:13:47.405Z,28.10
2018-08-04T08:14:50.828Z,28.10
2018-08-04T08:15:55.358Z,28.10
2018-08-04T08:16:58.783Z,28.10
2018-08-04T08:18:02.162Z,28.10
2018-08-04T08:19:05.679Z,28.10
2018-08-04T08:20:09.821Z,28.10
2018-08-04T08:21:14.271Z,28.20
2018-08-04T08:22:17.723Z,28.20
2018-08-04T08:23:21.091Z,28.20
2018-08-04T08:24:24.467Z,28.10
2018-08-04T08:25:29.720Z,28.10
2018-08-04T08:26:33.124Z,28.20
2018-08-04T08:27:36.836Z,28.20
2018-08-04T08:28:41.238Z,28.20
2018-08-04T08:29:44.627Z,28.20
2018-08-04T08:30:49.148Z,28.30
2018-08-04T08:31:52.527Z,28.20
2018-08-04T08:32:55.939Z,28.30
2018-08-04T08:35:02.400Z,28.30
2018-08-04T08:37:10.047Z,28.30
2018-08-04T08:38:13.443Z,28.30
2018-08-04T08:39:16.824Z,28.30
2018-08-04T08:40:21.396Z,28.30
2018-08-04T08:42:28.412Z,28.40
2018-08-04T08:43:31.795Z,28.40
2018-08-04T08:44:35.165Z,28.40
2018-08-04T08:45:39.756Z,28.50
2018-08-04T08:46:43.173Z,28.50
2018-08-04T08:47:46.539Z,28.50
2018-08-04T08:48:50.057Z,28.50
2018-08-04T08:49:53.431Z,28.50
2018-08-04T08:50:57.926Z,28.50
2018-08-04T08:52:01.340Z,28.60
2018-08-04T08:53:04.776Z,28.60
2018-08-04T08:54:08.270Z,28.60
2018-08-04T08:56:16.274Z,28.70
2018-08-04T08:57:19.659Z,28.70
2018-08-04T08:58:23.044Z,28.70
2018-08-04T08:59:26.471Z,28.70
2018-08-04T09:00:31.868Z,28.80
2018-08-04T09:01:35.277Z,28.80
2018-08-04T09:02:38.789Z,28.80
2018-08-04T09:03:42.159Z,28.80
2018-08-04T09:04:45.565Z,28.80
2018-08-04T09:05:49.891Z,28.90
2018-08-04T09:07:56.503Z,28.90
2018-08-04T09:08:59.875Z,28.90
2018-08-04T09:10:05.200Z,28.90
2018-08-04T09:11:10.541Z,28.90
2018-08-04T09:12:13.943Z,28.90
2018-08-04T09:13:17.319Z,28.90
2018-08-04T09:15:25.069Z,28.90
2018-08-04T09:16:29.495Z,28.90
2018-08-04T09:17:32.863Z,29.00
2018-08-04T09:18:36.235Z,29.00
2018-08-04T09:19:39.647Z,29.00
2018-08-04T09:20:44.051Z,28.90
2018-08-04T09:21:47.451Z,29.00
2018-08-04T09:22:50.830Z,29.00
2018-08-04T09:23:54.253Z,29.00
2018-08-04T09:24:57.891Z,29.00
2018-08-04T09:26:02.161Z,29.00
2018-08-04T09:27:05.773Z,29.00
2018-08-04T09:28:09.145Z,29.00
2018-08-04T09:29:12.527Z,29.00
2018-08-04T09:30:17.527Z,29.00
2018-08-04T09:31:22.002Z,29.00
2018-08-04T09:33:28.471Z,29.10
2018-08-04T09:34:31.831Z,29.10
2018-08-04T09:35:36.222Z,29.10
2018-08-04T09:36:39.666Z,29.10
2018-08-04T09:37:43.070Z,29.10
2018-08-04T09:39:49.682Z,29.20
2018-08-04T09:40:55.139Z,29.20
2018-08-04T09:41:58.527Z,29.20
2018-08-04T09:43:01.903Z,29.20
2018-08-04T09:44:05.647Z,29.20
2018-08-04T09:45:10.675Z,29.30
2018-08-04T09:46:15.185Z,29.30
2018-08-04T09:47:18.583Z,29.30
2018-08-04T09:48:21.952Z,29.30
2018-08-04T09:49:25.346Z,29.30
2018-08-04T09:50:30.026Z,29.40
2018-08-04T09:51:33.449Z,29.40
2018-08-04T09:52:36.913Z,29.40
2018-08-04T09:53:40.215Z,29.40
2018-08-04T09:54:43.584Z,29.40
2018-08-04T09:56:50.631Z,29.40
2018-08-04T09:57:54.005Z,29.40
2018-08-04T09:58:57.391Z,29.50
2018-08-04T10:00:00.771Z,29.50
2018-08-04T10:01:10.288Z,29.50
2018-08-04T10:02:14.163Z,29.50
2018-08-04T10:03:17.558Z,29.50
2018-08-04T10:04:20.923Z,29.50
2018-08-04T10:05:25.300Z,29.50
2018-08-04T10:06:29.988Z,29.50
2018-08-04T10:07:33.380Z,29.50
2018-08-04T10:08:36.747Z,29.60
2018-08-04T10:09:40.125Z,29.60
2018-08-04T10:10:45.191Z,29.60
2018-08-04T10:12:51.683Z,29.50
2018-08-04T10:13:55.056Z,29.60
2018-08-04T10:14:58.475Z,29.60
2018-08-04T10:16:03.203Z,29.70
2018-08-04T10:17:06.611Z,29.70
2018-08-04T10:18:09.999Z,29.70
2018-08-04T10:19:13.387Z,29.70
2018-08-04T10:20:17.833Z,29.70
2018-08-04T10:21:22.626Z,29.70
2018-08-04T10:22:26.035Z,29.80
2018-08-04T10:23:29.427Z,29.70
2018-08-04T10:24:33.194Z,29.70
2018-08-04T10:25:37.535Z,29.80
2018-08-04T10:26:40.945Z,29.80
2018-08-04T10:28:47.408Z,29.80
2018-08-04T10:29:50.804Z,29.80
2018-08-04T10:30:55.284Z,29.80
2018-08-04T10:31:58.875Z,29.90
2018-08-04T10:33:02.233Z,29.90
2018-08-04T10:34:05.743Z,29.90
2018-08-04T10:35:09.801Z,29.90
2018-08-04T10:36:13.747Z,30.00
2018-08-04T10:38:20.248Z,30.00
2018-08-04T10:39:23.659Z,30.00
2018-08-04T10:40:28.044Z,30.00
2018-08-04T10:41:31.451Z,30.00
2018-08-04T10:42:34.935Z,30.00
2018-08-04T10:43:38.311Z,30.00
2018-08-04T10:44:41.707Z,30.00
2018-08-04T10:45:45.929Z,30.10
2018-08-04T10:46:49.327Z,30.10
2018-08-04T10:47:52.701Z,30.10
2018-08-04T10:48:56.065Z,30.10
2018-08-04T10:49:59.449Z,30.10
2018-08-04T10:51:03.846Z,30.10
2018-08-04T10:52:07.247Z,30.20
2018-08-04T10:53:10.625Z,30.20
2018-08-04T10:54:13.998Z,30.20
2018-08-04T10:55:18.492Z,30.20
2018-08-04T10:56:23.499Z,30.30
2018-08-04T10:58:29.969Z,30.30
2018-08-04T10:59:33.355Z,30.30
2018-08-04T11:00:37.932Z,30.30
2018-08-04T11:01:41.367Z,30.30
2018-08-04T11:03:47.895Z,30.30
2018-08-04T11:04:51.271Z,30.30
2018-08-04T11:05:56.149Z,30.30
2018-08-04T11:06:59.546Z,30.30
2018-08-04T11:08:02.917Z,30.40
2018-08-04T11:09:08.903Z,30.30
2018-08-04T11:10:13.379Z,30.40
2018-08-04T11:11:17.847Z,30.40
2018-08-04T11:12:21.235Z,30.40
2018-08-04T11:13:24.623Z,30.40
2018-08-04T11:14:28.007Z,30.40
2018-08-04T11:15:32.420Z,30.40
2018-08-04T11:17:39.079Z,30.40
2018-08-04T11:18:42.464Z,30.40
2018-08-04T11:19:45.839Z,30.40
2018-08-04T11:20:50.116Z,30.40
2018-08-04T11:21:53.525Z,30.30
2018-08-04T11:22:56.932Z,30.30
2018-08-04T11:24:00.334Z,30.30
2018-08-04T11:25:04.321Z,30.30
2018-08-04T11:27:11.587Z,30.40
2018-08-04T11:28:14.980Z,30.40
2018-08-04T11:29:18.347Z,30.40
2018-08-04T11:30:23.803Z,30.40
2018-08-04T11:31:28.263Z,30.40
2018-08-04T11:32:31.711Z,30.40
2018-08-04T11:33:35.082Z,30.40
2018-08-04T11:34:38.471Z,30.40
2018-08-04T11:35:42.846Z,30.50
2018-08-04T11:36:46.351Z,30.50
2018-08-04T11:37:49.872Z,30.50
2018-08-04T11:38:53.227Z,30.40
2018-08-04T11:39:56.595Z,30.50
2018-08-04T11:41:00.960Z,30.50
2018-08-04T11:42:04.395Z,30.60
2018-08-04T11:43:07.783Z,30.60
2018-08-04T11:44:11.153Z,30.60
2018-08-04T11:45:15.565Z,30.50
2018-08-04T11:46:20.143Z,30.60
2018-08-04T11:47:23.535Z,30.50
2018-08-04T11:48:26.924Z,30.60
2018-08-04T11:49:30.303Z,30.60
2018-08-04T11:51:37.550Z,30.60
2018-08-04T11:53:44.075Z,30.60
2018-08-04T11:54:47.451Z,30.60
2018-08-04T11:56:54.799Z,30.60
2018-08-04T11:57:58.172Z,30.60
2018-08-04T11:59:01.579Z,30.60
2018-08-04T12:00:06.400Z,30.60
2018-08-04T12:02:13.683Z,30.70
2018-08-04T12:03:17.070Z,30.70
2018-08-04T12:04:20.462Z,30.70
2018-08-04T12:05:25.190Z,30.70
2018-08-04T12:06:29.675Z,30.70
2018-08-04T12:07:33.040Z,30.80
2018-08-04T12:08:36.408Z,30.80
2018-08-04T12:09:39.800Z,30.90
2018-08-04T12:10:44.355Z,30.80
2018-08-04T12:12:50.831Z,30.80
2018-08-04T12:13:54.201Z,30.90
2018-08-04T12:14:57.591Z,30.90
2018-08-04T12:16:01.995Z,30.90
2018-08-04T12:17:05.398Z,30.90
2018-08-04T12:18:08.785Z,30.90
2018-08-04T12:20:16.409Z,30.90
2018-08-04T12:21:21.473Z,30.90
2018-08-04T12:22:24.903Z,31.00
2018-08-04T12:23:28.280Z,31.00
2018-08-04T12:24:31.655Z,31.00
2018-08-04T12:25:36.111Z,31.00
2018-08-04T12:26:39.519Z,31.00
2018-08-04T12:27:42.902Z,31.10
2018-08-04T12:28:46.272Z,31.10
2018-08-04T12:29:49.635Z,31.10
2018-08-04T12:30:53.952Z,31.10
2018-08-04T12:31:57.334Z,31.00
2018-08-04T12:33:00.707Z,31.00
2018-08-04T12:34:04.075Z,31.00
2018-08-04T12:35:09.071Z,31.00
2018-08-04T12:36:13.612Z,31.00
2018-08-04T12:37:17.014Z,31.10
2018-08-04T12:38:20.431Z,31.10
2018-08-04T12:39:23.795Z,31.10
2018-08-04T12:40:28.253Z,31.10
2018-08-04T12:41:31.647Z,31.10
2018-08-04T12:42:35.052Z,31.10
2018-08-04T12:43:38.417Z,31.20
2018-08-04T12:44:41.803Z,31.30
2018-08-04T12:45:46.389Z,31.30
2018-08-04T12:46:49.819Z,31.30
2018-08-04T12:47:53.296Z,31.30
2018-08-04T12:48:56.671Z,31.30
2018-08-04T12:50:00.040Z,31.40
2018-08-04T12:51:04.489Z,31.40
2018-08-04T12:52:07.913Z,31.40
2018-08-04T12:53:11.287Z,31.40
2018-08-04T12:54:14.662Z,31.40
2018-08-04T12:55:19.028Z,31.50
2018-08-04T12:56:23.253Z,31.50
2018-08-04T12:57:26.767Z,31.50
2018-08-04T13:00:37.194Z,31.60
2018-08-04T13:01:40.595Z,31.70
2018-08-04T13:02:44.040Z,31.70
2018-08-04T13:03:47.376Z,31.70
2018-08-04T13:04:50.924Z,31.80
2018-08-04T13:05:55.271Z,31.80
2018-08-04T13:06:58.663Z,31.90
2018-08-04T13:09:08.083Z,31.90
2018-08-04T13:10:12.564Z,32.10
2018-08-04T13:11:17.194Z,32.10
2018-08-04T13:12:20.591Z,32.00
2018-08-04T13:13:23.981Z,32.10
2018-08-04T13:14:27.438Z,32.10
2018-08-04T13:15:32.303Z,32.10
2018-08-04T13:16:35.691Z,32.20
2018-08-04T13:17:39.095Z,32.20
2018-08-04T13:18:42.527Z,32.30
2018-08-04T13:19:45.907Z,32.30
2018-08-04T13:20:50.259Z,32.30
2018-08-04T13:21:53.692Z,32.30
2018-08-04T13:22:57.058Z,32.30
2018-08-04T13:24:00.583Z,32.40
2018-08-04T13:25:04.754Z,32.40
2018-08-04T13:26:09.452Z,32.40
2018-08-04T13:27:12.853Z,32.40
2018-08-04T13:28:16.242Z,32.40
2018-08-04T13:29:19.608Z,32.40
2018-08-04T13:30:24.174Z,32.40
2018-08-04T13:31:28.778Z,32.40
2018-08-04T13:32:32.147Z,32.40
2018-08-04T13:33:35.535Z,32.40
2018-08-04T13:34:38.915Z,32.40
2018-08-04T13:35:43.701Z,32.50
2018-08-04T13:36:47.095Z,32.60
2018-08-04T13:37:50.471Z,32.60
2018-08-04T13:38:53.855Z,32.60
2018-08-04T13:39:57.244Z,32.60
2018-08-04T13:41:01.684Z,32.60
2018-08-04T13:42:05.099Z,32.60
2018-08-04T13:43:08.491Z,32.60
2018-08-04T13:44:11.891Z,32.70
2018-08-04T13:45:16.298Z,32.70
2018-08-04T13:46:20.863Z,32.70
2018-08-04T13:47:24.318Z,32.70
2018-08-04T13:48:27.687Z,32.80
2018-08-04T13:49:31.099Z,32.90
2018-08-04T13:50:36.296Z,32.90
2018-08-04T13:51:39.715Z,33.00
2018-08-04T13:52:43.095Z,33.00
2018-08-04T13:53:46.467Z,33.00
2018-08-04T13:54:49.861Z,33.00
2018-08-04T13:55:54.157Z,33.00
2018-08-04T13:56:57.561Z,33.00
2018-08-04T13:58:00.937Z,33.00
2018-08-04T13:59:04.355Z,33.00
2018-08-04T14:00:09.711Z,33.00
2018-08-04T14:01:14.074Z,33.00
2018-08-04T14:02:17.460Z,33.10
2018-08-04T14:04:24.053Z,33.10
2018-08-04T14:05:29.198Z,33.10
2018-08-04T14:06:32.624Z,33.10
2018-08-04T14:07:36.004Z,33.20
2018-08-04T14:08:39.379Z,33.20
2018-08-04T14:09:42.782Z,33.20
2018-08-04T14:10:47.202Z,33.30
2018-08-04T14:11:50.651Z,33.30
2018-08-04T14:12:54.023Z,33.30
2018-08-04T14:13:57.403Z,33.30
2018-08-04T14:15:00.778Z,33.30
2018-08-04T14:16:06.003Z,33.40
2018-08-04T14:17:09.407Z,33.40
2018-08-04T14:18:12.786Z,33.30
2018-08-04T14:19:16.155Z,33.30
2018-08-04T14:20:20.696Z,33.40
2018-08-04T14:21:25.627Z,33.40
2018-08-04T14:22:29.019Z,33.40
2018-08-04T14:23:32.599Z,33.40
2018-08-04T14:24:35.968Z,33.40
2018-08-04T14:25:40.495Z,33.40
2018-08-04T14:26:43.891Z,33.40
2018-08-04T14:27:47.263Z,33.50
2018-08-04T14:28:50.776Z,33.50
2018-08-04T14:29:54.110Z,33.60
2018-08-04T14:30:58.957Z,33.60
2018-08-04T14:32:02.347Z,33.70
2018-08-04T14:33:05.715Z,33.70
2018-08-04T14:34:09.098Z,33.70
2018-08-04T14:35:13.367Z,33.70
2018-08-04T14:36:17.804Z,33.70
2018-08-04T14:37:21.193Z,33.80
2018-08-04T14:38:24.579Z,33.70
2018-08-04T14:39:27.953Z,33.70
2018-08-04T14:40:32.466Z,33.80
2018-08-04T14:41:35.974Z,33.80
2018-08-04T14:42:39.478Z,33.80